Time;durP1;ratioP1;P1;durP2;ratioP2;P2;SDS_P1;SDS_P2;PMS_P1;PMS_P2;Temp;Humidity;BMP_temperature;BMP_pressure;BME280_temperature;BME280_humidity;BME280_pressure;Samples;Min_cycle;Max_cycle;Signal;HPM_P1;HPM_P2
2022/03/13 00:02:13;;;;;;;;;10.67;10.00;;;;;10.81;67.26;100681.88;5058073;28;46315;-70
2022/03/13 00:04:39;;;;;;;;;12.00;11.00;;;;;10.90;66.17;100676.53;5058025;28;45470;-69
2022/03/13 00:07:25;;;;;;;;;10.00;10.00;;;;;10.79;66.48;100652.75;5057964;28;45512;-70
2022/03/13 00:09:51;;;;;;;;;11.00;10.00;;;;;10.96;66.06;100672.44;5058457;28;45287;-68
2022/03/13 00:12:26;;;;;;;;;14.00;12.33;;;;;11.03;65.39;100676.19;5057461;28;45725;-70
2022/03/13 00:14:55;;;;;;;;;9.33;9.33;;;;;10.51;65.94;100581.97;5058002;28;45452;-70
2022/03/13 00:17:21;;;;;;;;;12.00;10.67;;;;;10.95;65.01;100646.81;5057800;28;45385;-75
2022/03/13 00:19:49;;;;;;;;;13.33;13.33;;;;;10.62;65.23;100587.09;5036840;28;45306;-70
2022/03/13 00:22:14;;;;;;;;;13.00;10.00;;;;;10.93;65.15;100638.16;5037916;28;46443;-71
2022/03/13 00:24:40;;;;;;;;;9.33;8.33;;;;;11.15;65.03;100679.47;5036233;28;45603;-69
2022/03/13 00:27:06;;;;;;;;;11.00;11.00;;;;;11.19;65.01;100676.34;5042865;28;45426;-69
2022/03/13 00:29:32;;;;;;;;;9.67;9.67;;;;;10.97;64.87;100639.50;5058134;28;45564;-71
2022/03/13 00:31:57;;;;;;;;;10.33;8.67;;;;;11.12;64.52;100656.66;5056548;28;48404;-70
2022/03/13 00:34:23;;;;;;;;;10.67;9.67;;;;;11.31;64.63;100684.13;5058249;28;45339;-69
2022/03/13 00:36:49;;;;;;;;;8.33;7.00;;;;;11.30;63.70;100682.47;5037908;28;45290;-70
2022/03/13 00:39:16;;;;;;;;;13.00;10.00;;;;;11.32;64.36;100681.31;5038056;28;45439;-70
2022/03/13 00:41:41;;;;;;;;;6.33;6.33;;;;;11.26;63.79;100665.97;5037739;28;45573;-69
2022/03/13 00:44:07;;;;;;;;;7.33;7.00;;;;;11.26;63.40;100666.78;5036063;28;46100;-70
2022/03/13 00:46:36;;;;;;;;;8.67;8.67;;;;;10.95;63.65;100614.88;5036243;28;45368;-70
2022/03/13 00:49:02;;;;;;;;;8.33;7.33;;;;;11.27;63.78;100678.28;5037946;28;45500;-69
2022/03/13 00:51:27;;;;;;;;;7.00;7.00;;;;;11.01;63.24;100630.25;5037271;28;45675;-70
2022/03/13 00:53:53;;;;;;;;;12.00;10.33;;;;;10.99;63.56;100629.56;5037300;28;45245;-70
2022/03/13 00:56:18;;;;;;;;;9.00;8.33;;;;;11.21;63.51;100663.75;5056436;28;45280;-69
2022/03/13 00:58:44;;;;;;;;;7.33;6.33;;;;;11.08;63.76;100626.00;5056128;28;45493;-70
2022/03/13 01:01:12;;;;;;;;;8.00;5.67;;;;;11.26;63.47;100666.78;5057309;28;45560;-69
2022/03/13 01:03:37;;;;;;;;;7.33;7.33;;;;;11.30;63.10;100661.16;5056190;28;45733;-69
2022/03/13 01:06:07;;;;;;;;;7.33;7.00;;;;;10.83;62.63;100582.38;5057356;28;45267;-70
2022/03/13 01:08:33;;;;;;;;;12.67;9.67;;;;;11.22;62.85;100656.59;5057788;28;45314;-69
2022/03/13 01:11:00;;;;;;;;;7.33;7.33;;;;;10.73;62.55;100570.09;5056726;28;46011;-69
2022/03/13 01:13:26;;;;;;;;;9.33;8.00;;;;;11.09;63.08;100627.69;5055786;28;45476;-70
2022/03/13 01:16:11;;;;;;;;;7.33;7.33;;;;;11.17;62.65;100638.41;5057113;28;45354;-70
2022/03/13 01:18:47;;;;;;;;;7.00;7.00;;;;;11.08;63.15;100631.34;5046927;28;45506;-72
2022/03/13 01:21:13;;;;;;;;;8.33;7.67;;;;;11.14;62.61;100638.72;5036672;28;46405;-70
2022/03/13 01:23:40;;;;;;;;;5.33;5.33;;;;;11.21;61.99;100637.16;5038176;28;45518;-71
2022/03/13 01:26:23;;;;;;;;;8.67;5.67;;;;;11.20;62.59;100640.75;5056977;28;45322;-69
2022/03/13 01:28:53;;;;;;;;;7.00;6.00;;;;;10.87;62.50;100569.59;5055533;28;45399;-69
2022/03/13 01:31:22;;;;;;;;;7.00;7.00;;;;;11.21;61.91;100629.16;5056653;28;45796;-69
2022/03/13 01:33:47;;;;;;;;;7.33;7.00;;;;;11.06;61.82;100596.06;5055302;28;45153;-69
2022/03/13 01:36:13;;;;;;;;;6.00;5.00;;;;;11.26;62.27;100616.22;5056231;28;45529;-70
2022/03/13 01:38:39;;;;;;;;;5.00;5.00;;;;;11.36;62.00;100623.28;5056933;28;45533;-69
2022/03/13 01:41:05;;;;;;;;;5.00;5.00;;;;;10.66;61.38;100517.53;5056926;28;45338;-69
2022/03/13 01:43:31;;;;;;;;;6.00;6.00;;;;;10.90;61.27;100542.69;5054723;28;46398;-71
2022/03/13 01:45:58;;;;;;;;;7.33;6.00;;;;;11.13;62.12;100590.97;5055205;28;45564;-68
2022/03/13 01:48:25;;;;;;;;;12.67;9.33;;;;;11.22;61.88;100625.50;5055264;28;45405;-69
2022/03/13 01:50:50;;;;;;;;;9.00;9.00;;;;;10.98;62.38;100566.72;5048175;28;46415;-69
2022/03/13 01:53:16;;;;;;;;;8.00;6.33;;;;;11.17;61.50;100597.66;5056696;28;45376;-70
2022/03/13 01:55:41;;;;;;;;;5.00;5.00;;;;;10.96;61.81;100563.38;5056695;28;45267;-70
2022/03/13 01:58:07;;;;;;;;;6.00;6.00;;;;;11.27;62.42;100617.91;5055187;28;45527;-69
2022/03/13 02:00:32;;;;;;;;;8.33;6.67;;;;;11.21;62.00;100599.88;5055071;28;47130;-69
2022/03/13 02:02:58;;;;;;;;;6.67;6.67;;;;;11.14;61.60;100589.97;5056237;28;45308;-69
2022/03/13 02:05:36;;;;;;;;;6.67;6.67;;;;;11.18;61.53;100608.16;5036907;28;45454;-70
2022/03/13 02:08:12;;;;;;;;;7.33;7.33;;;;;11.14;61.82;100606.78;5036751;28;45517;-70
2022/03/13 02:10:38;;;;;;;;;5.00;5.00;;;;;11.18;61.79;100602.81;5036220;28;46510;-69
2022/03/13 02:13:04;;;;;;;;;7.00;7.00;;;;;11.16;61.96;100591.50;5036475;28;45221;-69
2022/03/13 02:15:32;;;;;;;;;7.67;6.67;;;;;11.12;62.06;100579.50;5036470;28;45308;-69
2022/03/13 02:18:01;;;;;;;;;7.33;6.33;;;;;10.51;62.13;100495.09;5037425;28;45229;-69
2022/03/13 02:20:27;;;;;;;;;6.33;6.33;;;;;10.64;62.36;100521.34;5056048;28;46512;-70
2022/03/13 02:22:59;;;;;;;;;9.00;6.67;;;;;10.89;62.35;100564.97;5042187;28;45518;-68
2022/03/13 02:25:25;;;;;;;;;8.00;6.67;;;;;10.87;62.10;100572.25;5036226;28;45271;-69
2022/03/13 02:27:51;;;;;;;;;6.00;6.00;;;;;10.85;62.93;100561.78;5036051;28;45332;-69
2022/03/13 02:30:24;;;;;;;;;8.67;8.67;;;;;10.86;62.82;100565.28;5035961;28;45752;-69
2022/03/13 02:32:50;;;;;;;;;10.00;9.00;;;;;10.83;62.74;100565.56;5036315;28;45565;-69
2022/03/13 02:35:16;;;;;;;;;9.00;8.00;;;;;10.88;62.91;100564.13;5035720;28;45585;-68
2022/03/13 02:37:42;;;;;;;;;6.33;6.33;;;;;10.90;62.43;100558.66;5034934;28;45559;-69
2022/03/13 02:40:16;;;;;;;;;7.00;7.00;;;;;10.60;62.66;100519.94;5035760;28;45701;-70
2022/03/13 02:42:42;;;;;;;;;8.67;8.67;;;;;10.74;63.03;100554.00;5035609;28;45310;-69
2022/03/13 02:45:08;;;;;;;;;8.67;8.67;;;;;10.56;62.56;100539.81;5036106;28;45867;-68
2022/03/13 02:47:33;;;;;;;;;6.33;6.33;;;;;10.57;63.36;100552.97;5036204;28;45177;-68
2022/03/13 02:49:58;;;;;;;;;8.00;8.00;;;;;10.42;63.12;100535.03;5039264;28;45458;-69
2022/03/13 02:52:24;;;;;;;;;8.00;8.00;;;;;10.51;63.44;100547.41;5039286;28;45419;-69
2022/03/13 02:54:49;;;;;;;;;11.00;9.67;;;;;10.47;63.58;100544.22;5039428;28;45296;-69
2022/03/13 02:57:15;;;;;;;;;10.33;8.00;;;;;10.34;63.38;100517.16;5039435;28;45193;-70
2022/03/13 02:59:40;;;;;;;;;8.33;7.67;;;;;10.35;63.25;100505.53;5039073;28;46605;-70
2022/03/13 03:02:06;;;;;;;;;8.33;7.67;;;;;10.50;63.34;100541.28;5054637;28;45492;-68
2022/03/13 03:04:31;;;;;;;;;12.33;9.00;;;;;10.46;63.45;100550.53;5059230;28;45196;-69
2022/03/13 03:07:05;;;;;;;;;9.33;8.33;;;;;10.36;63.27;100533.78;5059991;28;46084;-69
2022/03/13 03:09:32;;;;;;;;;12.67;12.00;;;;;10.52;63.32;100544.63;5058979;28;45459;-70
2022/03/13 03:12:00;;;;;;;;;10.33;10.33;;;;;10.52;63.67;100549.94;5056817;28;45319;-69
2022/03/13 03:14:28;;;;;;;;;12.00;11.00;;;;;10.43;63.30;100547.34;5057727;28;45362;-68
2022/03/13 03:16:54;;;;;;;;;9.67;8.67;;;;;10.47;63.59;100546.06;5057989;28;45462;-68
2022/03/13 03:19:20;;;;;;;;;11.00;10.00;;;;;10.39;62.86;100538.78;5057274;28;47392;-70
2022/03/13 03:21:46;;;;;;;;;11.33;9.67;;;;;10.42;62.88;100546.50;5059001;28;45288;-69
2022/03/13 03:24:22;;;;;;;;;8.00;7.00;;;;;10.33;63.17;100531.44;5058994;28;45430;-69
2022/03/13 03:26:48;;;;;;;;;10.00;10.00;;;;;10.27;63.64;100524.88;5051048;28;45320;-68
2022/03/13 03:29:14;;;;;;;;;8.00;8.00;;;;;10.24;63.36;100527.00;5037288;28;47427;-69
2022/03/13 03:31:45;;;;;;;;;11.00;8.67;;;;;9.55;63.12;100418.50;5050577;28;45347;-68
2022/03/13 03:34:14;;;;;;;;;7.00;6.00;;;;;10.11;63.30;100521.16;5058594;28;45227;-69
2022/03/13 03:36:42;;;;;;;;;10.00;10.00;;;;;10.16;63.87;100540.13;5058885;28;45264;-68
2022/03/13 03:39:09;;;;;;;;;10.67;9.00;;;;;9.98;63.51;100511.69;5058642;28;45817;-69
2022/03/13 03:41:34;;;;;;;;;10.67;8.00;;;;;10.17;63.91;100533.84;5056170;28;45285;-69
2022/03/13 03:44:00;;;;;;;;;10.33;7.33;;;;;9.99;63.87;100529.28;5057188;28;45297;-69
2022/03/13 03:46:25;;;;;;;;;11.67;11.00;;;;;9.96;64.12;100526.94;5058888;28;45449;-69
2022/03/13 03:48:50;;;;;;;;;10.00;10.00;;;;;9.73;63.85;100483.97;5058415;28;45786;-68
2022/03/13 03:51:16;;;;;;;;;12.00;9.00;;;;;9.91;64.15;100513.25;5056662;28;45259;-69
2022/03/13 03:53:42;;;;;;;;;13.00;11.00;;;;;9.94;64.23;100525.41;5057246;28;45376;-70
2022/03/13 03:56:07;;;;;;;;;10.67;9.00;;;;;9.91;64.19;100534.50;5057078;28;45199;-69
2022/03/13 03:58:33;;;;;;;;;10.67;9.00;;;;;9.65;64.38;100491.00;5057964;28;45531;-68
2022/03/13 04:00:59;;;;;;;;;10.00;10.00;;;;;9.86;64.40;100525.31;5058479;28;45328;-69
2022/03/13 04:03:24;;;;;;;;;8.00;8.00;;;;;9.82;64.55;100526.59;5058427;28;45417;-68
2022/03/13 04:05:49;;;;;;;;;8.33;8.33;;;;;9.77;64.19;100506.59;5058540;28;45395;-68
2022/03/13 04:08:15;;;;;;;;;8.00;8.00;;;;;9.78;63.78;100504.75;5058110;28;45356;-69
2022/03/13 04:10:40;;;;;;;;;10.33;10.33;;;;;9.27;63.74;100407.84;5041380;28;45703;-68
2022/03/13 04:13:06;;;;;;;;;9.00;9.00;;;;;9.82;63.65;100506.19;5038367;28;45300;-68
2022/03/13 04:15:31;;;;;;;;;11.00;10.00;;;;;9.90;63.42;100524.88;5038280;28;45340;-68
2022/03/13 04:17:57;;;;;;;;;7.00;7.00;;;;;9.93;63.49;100527.22;5037875;28;45429;-69
2022/03/13 04:20:24;;;;;;;;;8.67;7.00;;;;;9.91;63.28;100521.22;5040588;28;45295;-69
2022/03/13 04:22:49;;;;;;;;;12.33;9.33;;;;;10.00;62.68;100538.94;5041171;28;45512;-68
2022/03/13 04:25:15;;;;;;;;;8.33;8.33;;;;;9.63;62.91;100471.72;5037592;28;45340;-68
2022/03/13 04:27:41;;;;;;;;;8.00;8.00;;;;;9.87;63.01;100505.72;5037310;28;46642;-69
2022/03/13 04:30:08;;;;;;;;;7.67;6.33;;;;;10.13;62.41;100537.78;5037826;28;45311;-68
2022/03/13 04:32:34;;;;;;;;;11.00;7.00;;;;;9.93;62.71;100510.44;5036120;28;45504;-68
2022/03/13 04:34:59;;;;;;;;;10.00;9.00;;;;;10.18;62.18;100535.50;5037731;28;45454;-68
2022/03/13 04:37:27;;;;;;;;;9.00;9.00;;;;;10.24;62.10;100540.28;5036278;28;49014;-70
2022/03/13 04:39:53;;;;;;;;;7.00;7.00;;;;;10.33;61.69;100544.72;5037366;28;45469;-70
2022/03/13 04:42:19;;;;;;;;;8.00;7.33;;;;;9.68;61.47;100432.31;5036385;28;45411;-69
2022/03/13 04:44:44;;;;;;;;;8.67;6.00;;;;;10.20;61.33;100514.94;5037951;28;45320;-68
2022/03/13 04:47:10;;;;;;;;;7.67;6.33;;;;;10.03;61.32;100482.88;5037275;28;45563;-69
2022/03/13 04:49:36;;;;;;;;;8.67;6.00;;;;;10.31;60.64;100530.75;5037313;28;45311;-69
2022/03/13 04:52:02;;;;;;;;;7.33;6.00;;;;;10.39;61.20;100540.63;5037778;28;45521;-69
2022/03/13 04:54:27;;;;;;;;;4.00;4.00;;;;;10.29;60.80;100506.97;5036218;28;45588;-68
2022/03/13 04:56:53;;;;;;;;;7.00;7.00;;;;;10.47;60.44;100530.94;5037055;28;46525;-69
2022/03/13 04:59:18;;;;;;;;;6.00;6.00;;;;;10.48;60.09;100524.63;5037351;28;45507;-70
2022/03/13 05:01:44;;;;;;;;;4.67;3.33;;;;;10.47;59.65;100509.69;5036321;28;45353;-69
2022/03/13 05:04:10;;;;;;;;;6.00;6.00;;;;;10.65;59.92;100531.81;5037216;28;45674;-68
2022/03/13 05:06:37;;;;;;;;;6.00;6.00;;;;;10.55;59.58;100507.09;5035725;28;47765;-69
2022/03/13 05:09:05;;;;;;;;;5.33;3.67;;;;;10.72;59.21;100520.56;5037037;28;45536;-69
2022/03/13 05:11:30;;;;;;;;;6.33;6.00;;;;;10.56;59.48;100489.31;5034834;28;45482;-68
2022/03/13 05:13:56;;;;;;;;;5.33;5.33;;;;;10.75;59.02;100504.31;5037467;28;45213;-69
2022/03/13 05:16:21;;;;;;;;;5.33;5.33;;;;;10.85;59.13;100521.88;5037011;28;45283;-68
2022/03/13 05:18:47;;;;;;;;;4.67;4.67;;;;;10.81;58.80;100506.34;5041734;28;45276;-69
2022/03/13 05:21:12;;;;;;;;;4.00;4.00;;;;;10.87;58.90;100516.41;5045007;28;45291;-69
2022/03/13 05:23:38;;;;;;;;;6.33;6.00;;;;;10.79;58.41;100505.66;5052552;28;45530;-69
2022/03/13 05:26:03;;;;;;;;;6.00;5.00;;;;;10.90;58.80;100521.41;5036606;28;46370;-68
2022/03/13 05:28:29;;;;;;;;;7.00;7.00;;;;;10.65;58.05;100486.63;5035182;28;45541;-69
2022/03/13 05:30:54;;;;;;;;;3.33;3.33;;;;;10.67;58.25;100494.44;5035524;28;45254;-69
2022/03/13 05:33:20;;;;;;;;;6.67;4.67;;;;;10.77;58.19;100516.47;5039780;28;45486;-68
2022/03/13 05:35:45;;;;;;;;;4.00;4.00;;;;;10.73;58.33;100519.59;5056896;28;46251;-69
2022/03/13 05:38:10;;;;;;;;;4.33;4.00;;;;;10.65;57.87;100507.06;5056522;28;45289;-68
2022/03/13 05:40:36;;;;;;;;;5.00;4.00;;;;;10.46;57.47;100476.13;5056709;28;45354;-68
2022/03/13 05:43:03;;;;;;;;;3.33;3.33;;;;;10.64;58.19;100519.50;5056980;28;45387;-70
2022/03/13 05:45:30;;;;;;;;;6.67;6.33;;;;;10.78;58.53;100544.72;5057003;28;45736;-68
2022/03/13 05:47:57;;;;;;;;;4.00;4.00;;;;;10.31;58.46;100469.63;5055859;28;45609;-69
2022/03/13 05:50:24;;;;;;;;;4.00;4.00;;;;;10.68;58.01;100529.84;5051211;28;45541;-70
2022/03/13 05:52:50;;;;;;;;;5.00;5.00;;;;;10.64;58.39;100524.00;5036853;28;45424;-70
2022/03/13 05:55:17;;;;;;;;;4.00;4.00;;;;;10.61;57.98;100526.91;5036453;28;45510;-68
2022/03/13 05:57:43;;;;;;;;;5.00;5.00;;;;;10.46;58.28;100510.66;5036310;28;45326;-68
2022/03/13 06:00:11;;;;;;;;;5.00;5.00;;;;;10.69;58.05;100544.81;5036568;28;45216;-67
2022/03/13 06:02:38;;;;;;;;;5.00;5.00;;;;;10.33;57.54;100487.09;5036541;28;45348;-69
2022/03/13 06:05:05;;;;;;;;;3.67;3.67;;;;;10.42;57.90;100522.59;5036296;28;46403;-68
2022/03/13 06:07:30;;;;;;;;;4.33;4.33;;;;;10.25;58.35;100488.81;5036053;28;45398;-68
2022/03/13 06:09:56;;;;;;;;;6.33;3.00;;;;;10.58;58.16;100541.34;5036345;28;45478;-68
2022/03/13 06:12:21;;;;;;;;;4.00;4.00;;;;;10.58;58.08;100546.66;5035242;28;45569;-69
2022/03/13 06:14:47;;;;;;;;;5.00;4.00;;;;;10.52;58.45;100533.16;5058576;28;47754;-68
2022/03/13 06:17:12;;;;;;;;;4.33;3.00;;;;;10.62;57.99;100550.72;5071888;28;45403;-68
2022/03/13 06:19:42;;;;;;;;;4.00;4.00;;;;;10.49;58.36;100539.59;5055690;28;45590;-68
2022/03/13 06:22:08;;;;;;;;;5.33;5.33;;;;;10.19;58.05;100503.47;5057741;28;45388;-67
2022/03/13 06:24:34;;;;;;;;;3.33;3.33;;;;;10.31;58.46;100526.25;5058256;28;48632;-67
2022/03/13 06:27:00;;;;;;;;;4.67;4.00;;;;;10.29;58.66;100527.41;5058384;28;46424;-68
2022/03/13 06:29:25;;;;;;;;;4.00;4.00;;;;;9.80;58.60;100452.34;5059789;28;45527;-69
2022/03/13 06:31:51;;;;;;;;;5.33;5.00;;;;;10.46;58.82;100561.16;5059914;28;45420;-69
2022/03/13 06:34:17;;;;;;;;;5.33;5.33;;;;;10.56;58.85;100567.25;5057422;28;45595;-70
2022/03/13 06:36:44;;;;;;;;;7.67;3.67;;;;;10.52;58.24;100555.25;5019626;28;45536;-69
2022/03/13 06:39:09;;;;;;;;;5.00;5.00;;;;;10.01;58.34;100471.59;5019651;28;45300;-68
2022/03/13 06:41:34;;;;;;;;;6.33;5.00;;;;;10.53;58.54;100564.88;5030620;28;45660;-69
2022/03/13 06:44:00;;;;;;;;;5.33;4.00;;;;;10.18;58.68;100522.22;5054889;28;48412;-69
2022/03/13 06:46:25;;;;;;;;;4.33;4.33;;;;;10.42;58.41;100565.09;5037872;28;45561;-69
2022/03/13 06:48:50;;;;;;;;;5.00;4.33;;;;;10.54;58.79;100577.19;5039485;28;45245;-68
2022/03/13 06:51:16;;;;;;;;;3.67;3.67;;;;;10.61;58.90;100580.97;5048919;28;45252;-68
2022/03/13 06:53:41;;;;;;;;;4.00;4.00;;;;;10.50;58.21;100540.44;5059122;28;45810;-68
2022/03/13 06:56:07;;;;;;;;;3.33;3.33;;;;;10.48;57.95;100535.28;5049859;28;45463;-68
2022/03/13 06:58:32;;;;;;;;;4.00;4.00;;;;;10.67;57.67;100571.53;5051112;28;45536;-68
2022/03/13 07:00:57;;;;;;;;;4.00;4.00;;;;;9.69;57.97;100407.44;5059585;28;45459;-70
2022/03/13 07:03:23;;;;;;;;;4.00;4.00;;;;;10.64;57.47;100564.69;5054027;28;45316;-70
2022/03/13 07:05:48;;;;;;;;;4.00;4.00;;;;;10.57;57.35;100547.66;5045049;28;45379;-68
2022/03/13 07:08:15;;;;;;;;;4.67;3.67;;;;;10.75;57.32;100560.16;5057520;28;45387;-69
2022/03/13 07:10:40;;;;;;;;;5.00;5.00;;;;;11.04;56.91;100576.75;5058095;28;45544;-69
2022/03/13 07:13:05;;;;;;;;;4.00;4.00;;;;;11.18;56.49;100570.91;5059051;28;45408;-69
2022/03/13 07:15:31;;;;;;;;;3.33;3.33;;;;;11.29;56.12;100575.16;5059081;28;45411;-69
2022/03/13 07:17:57;;;;;;;;;3.67;3.67;;;;;11.40;56.06;100568.75;5059155;28;45314;-69
2022/03/13 07:20:23;;;;;;;;;7.00;5.00;;;;;11.30;54.97;100536.91;5043926;28;45372;-69
2022/03/13 07:22:48;;;;;;;;;4.00;4.00;;;;;11.69;54.67;100563.19;5037178;28;47631;-69
2022/03/13 07:25:14;;;;;;;;;3.67;3.00;;;;;11.83;54.48;100547.50;5038687;28;45244;-69
2022/03/13 07:27:41;;;;;;;;;4.33;3.33;;;;;11.83;53.53;100536.84;5041651;28;45651;-71
2022/03/13 07:30:08;;;;;;;;;3.00;3.00;;;;;12.05;54.11;100555.94;5041126;28;45780;-69
2022/03/13 07:32:34;;;;;;;;;2.00;2.00;;;;;12.12;53.34;100485.03;5058417;28;45520;-68
2022/03/13 07:35:00;;;;;;;;;2.33;2.33;;;;;13.17;51.12;100543.13;5039524;28;45510;-68
2022/03/13 07:37:26;;;;;;;;;4.00;4.00;;;;;13.88;49.14;100558.50;5038411;28;45488;-70
2022/03/13 07:39:53;;;;;;;;;6.33;6.00;;;;;14.60;47.97;100561.13;5038822;28;45498;-69
2022/03/13 07:42:18;;;;;;;;;3.00;3.00;;;;;14.74;45.81;100560.38;5038338;28;46609;-69
2022/03/13 07:44:44;;;;;;;;;3.33;3.33;;;;;14.19;46.77;100509.63;5038277;28;45238;-69
2022/03/13 07:47:09;;;;;;;;;3.00;3.00;;;;;14.52;46.88;100561.16;5036541;28;45314;-69
2022/03/13 07:49:35;;;;;;;;;4.67;4.67;;;;;14.69;46.81;100570.78;5038627;28;45483;-70
2022/03/13 07:52:00;;;;;;;;;4.67;4.67;;;;;14.76;45.87;100566.41;5038245;28;46206;-69
2022/03/13 07:54:26;;;;;;;;;2.00;2.00;;;;;14.94;46.14;100567.97;5038125;28;45323;-72
2022/03/13 07:56:51;;;;;;;;;1.00;1.00;;;;;15.11;45.72;100569.53;5054103;28;45322;-72
2022/03/13 07:59:17;;;;;;;;;3.00;2.00;;;;;15.38;43.93;100563.63;5048026;28;45177;-70
2022/03/13 08:01:42;;;;;;;;;2.00;2.00;;;;;15.53;43.84;100529.69;5045467;28;46155;-75
2022/03/13 08:04:07;;;;;;;;;3.67;3.00;;;;;15.91;43.26;100529.69;5044207;28;45427;-69
2022/03/13 08:06:35;;;;;;;;;4.00;3.00;;;;;16.53;41.99;100558.81;5043252;28;45670;-68
2022/03/13 08:09:02;;;;;;;;;3.00;3.00;;;;;17.32;41.08;100559.72;5036663;28;45459;-70
2022/03/13 08:11:28;;;;;;;;;2.67;2.67;;;;;17.89;39.96;100545.34;5038214;28;47334;-68
2022/03/13 08:13:53;;;;;;;;;2.00;2.00;;;;;18.01;39.56;100515.19;5042390;28;45443;-69
2022/03/13 08:16:19;;;;;;;;;2.00;2.00;;;;;17.94;39.29;100435.28;5054084;28;45696;-70
2022/03/13 08:18:44;;;;;;;;;1.00;1.00;;;;;18.91;37.71;100538.41;5057810;28;45230;-70
2022/03/13 08:21:10;;;;;;;;;3.00;3.00;;;;;19.24;38.07;100547.38;5057806;28;46522;-70
2022/03/13 08:23:35;;;;;;;;;1.00;1.00;;;;;19.51;37.21;100520.44;5036618;28;45465;-70
2022/03/13 08:26:01;;;;;;;;;2.00;2.00;;;;;20.11;36.21;100511.25;5017573;28;45613;-69
2022/03/13 08:28:26;;;;;;;;;3.33;3.33;;;;;20.61;34.63;100519.59;5040072;28;45577;-71
2022/03/13 08:30:52;;;;;;;;;4.00;4.00;;;;;20.76;34.67;100503.94;5037111;28;45652;-70
2022/03/13 08:33:17;;;;;;;;;4.00;4.00;;;;;20.81;34.21;100455.47;5037173;28;45251;-69
2022/03/13 08:35:43;;;;;;;;;3.00;3.00;;;;;20.68;33.78;100441.25;5039671;28;46670;-69
2022/03/13 08:38:08;;;;;;;;;3.00;3.00;;;;;20.89;33.75;100527.38;5036904;28;45460;-71
2022/03/13 08:40:34;;;;;;;;;2.67;2.67;;;;;20.51;34.17;100524.63;5040774;28;46925;-72
2022/03/13 08:43:02;;;;;;;;;4.00;4.00;;;;;20.21;34.67;100508.91;5037186;28;45350;-73
2022/03/13 08:45:28;;;;;;;;;2.00;2.00;;;;;19.83;34.55;100516.94;5037564;28;45394;-74
2022/03/13 08:47:53;;;;;;;;;3.00;2.00;;;;;19.77;35.01;100517.75;5034766;28;45459;-72
2022/03/13 08:50:20;;;;;;;;;2.33;2.33;;;;;19.62;35.40;100526.06;5045461;28;45740;-70
2022/03/13 08:52:45;;;;;;;;;2.33;1.00;;;;;19.51;34.91;100526.66;5052367;28;45533;-70
2022/03/13 08:55:14;;;;;;;;;1.00;1.00;;;;;19.41;35.31;100543.22;5037369;28;45387;-70
2022/03/13 08:57:44;;;;;;;;;2.00;2.00;;;;;19.30;34.97;100533.06;5037566;28;45492;-72
2022/03/13 09:00:11;;;;;;;;;3.00;3.00;;;;;19.27;35.22;100524.56;5046458;28;46848;-69
2022/03/13 09:02:38;;;;;;;;;1.67;1.67;;;;;19.36;35.88;100534.09;5056395;28;45340;-68
2022/03/13 09:05:04;;;;;;;;;1.00;1.00;;;;;19.43;35.37;100532.28;5052836;28;46061;-69
2022/03/13 09:07:29;;;;;;;;;2.00;2.00;;;;;19.27;34.47;100541.59;5049413;28;45403;-69
2022/03/13 09:09:54;;;;;;;;;2.67;2.67;;;;;17.32;35.65;100290.19;5036827;28;45652;-69
2022/03/13 09:12:20;;;;;;;;;1.00;1.00;;;;;18.81;35.56;100533.38;5037050;28;45341;-70
2022/03/13 09:14:46;;;;;;;;;2.00;2.00;;;;;18.77;35.51;100532.13;5037149;28;45450;-69
2022/03/13 09:17:12;;;;;;;;;2.00;2.00;;;;;18.77;35.14;100538.34;5037117;28;45375;-70
2022/03/13 09:19:38;;;;;;;;;1.00;1.00;;;;;18.72;36.25;100527.34;5036904;28;45597;-68
2022/03/13 09:22:03;;;;;;;;;1.67;1.67;;;;;18.80;36.02;100539.81;5036758;28;45581;-69
2022/03/13 09:24:29;;;;;;;;;1.67;1.67;;;;;18.61;35.44;100505.53;5038640;28;45336;-68
2022/03/13 09:26:54;;;;;;;;;1.00;1.00;;;;;18.78;35.30;100533.78;5040605;28;45347;-68
2022/03/13 09:29:20;;;;;;;;;1.00;1.00;;;;;18.73;36.02;100536.25;5044505;28;47051;-70
2022/03/13 09:31:45;;;;;;;;;1.00;1.00;;;;;18.77;35.98;100535.66;5048505;28;45464;-69
2022/03/13 09:34:11;;;;;;;;;13.50;13.50;;;;;18.78;36.11;100534.63;5036748;28;45477;-69
2022/03/13 09:36:37;;;;;;;;;2.00;2.00;;;;;18.63;35.89;100531.28;5048412;28;45518;-69
2022/03/13 09:39:07;;;;;;;;;1.67;1.67;;;;;18.25;35.90;100525.50;5040983;28;46067;-69
2022/03/13 09:41:32;;;;;;;;;2.00;2.00;;;;;17.84;36.46;100504.75;5040539;28;45530;-71
2022/03/13 09:43:58;;;;;;;;;1.00;1.00;;;;;17.73;37.08;100542.09;5048932;28;45346;-70
2022/03/13 09:46:23;;;;;;;;;1.33;1.00;;;;;17.37;37.65;100504.56;5055680;28;45192;-68
2022/03/13 09:48:52;;;;;;;;;1.67;1.67;;;;;17.26;37.72;100514.81;5055506;28;46731;-70
2022/03/13 09:51:17;;;;;;;;;7.33;5.33;;;;;17.12;37.99;100534.53;5050440;28;45350;-71
2022/03/13 09:53:43;;;;;;;;;4.67;3.67;;;;;17.09;38.45;100534.91;5038140;28;45572;-70
2022/03/13 09:56:09;;;;;;;;;2.00;2.00;;;;;17.00;38.90;100544.09;5054603;28;45635;-69
2022/03/13 09:58:34;;;;;;;;;1.00;1.00;;;;;16.85;39.12;100533.44;5058658;28;45388;-70
2022/03/13 10:01:00;;;;;;;;;1.00;1.00;;;;;16.65;39.25;100538.53;5044579;28;45403;-69
2022/03/13 10:03:26;;;;;;;;;4.00;3.00;;;;;16.48;39.55;100539.75;5037190;28;45378;-71
2022/03/13 10:05:55;;;;;;;;;2.00;2.00;;;;;16.03;39.98;100487.19;5048185;28;45538;-71
2022/03/13 10:08:27;;;;;;;;;1.00;1.00;;;;;16.15;40.45;100539.31;5059087;28;46294;-69
2022/03/13 10:10:53;;;;;;;;;2.00;2.00;;;;;16.03;40.78;100530.09;5058482;28;45445;-68
2022/03/13 10:13:40;;;;;;;;;1.67;1.67;;;;;16.00;40.45;100547.34;5052803;28;45348;-69
2022/03/13 10:16:08;;;;;;;;;1.00;1.00;;;;;15.90;41.21;100536.06;5050531;28;45398;-70
2022/03/13 10:18:35;;;;;;;;;1.33;1.33;;;;;15.74;41.10;100502.22;5039195;28;46219;-69
2022/03/13 10:21:26;;;;;;;;;2.67;1.33;;;;;15.78;41.57;100542.88;5037600;28;45611;-70
2022/03/13 10:23:52;;;;;;;;;2.00;2.00;;;;;15.37;41.35;100486.97;5035378;28;45521;-69
2022/03/13 10:26:17;;;;;;;;;2.00;2.00;;;;;15.69;41.76;100546.69;5039040;28;45251;-71
2022/03/13 10:28:43;;;;;;;;;4.67;2.00;;;;;15.34;41.82;100494.53;5038585;28;45878;-70
2022/03/13 10:31:16;;;;;;;;;2.00;2.00;;;;;15.48;41.97;100531.25;5039770;28;45269;-70
2022/03/13 10:33:42;;;;;;;;;7.00;7.00;;;;;15.41;42.45;100525.78;5039606;28;45465;-71
2022/03/13 10:36:37;;;;;;;;;4.00;3.00;;;;;15.24;42.60;100505.53;5044646;28;45608;-68
2022/03/13 10:39:09;;;;;;;;;1.67;1.67;;;;;15.22;43.24;100507.56;5053893;28;45744;-70
2022/03/13 10:41:43;;;;;;;;;5.00;3.67;;;;;15.25;43.31;100520.56;5050247;28;45342;-70
2022/03/13 10:44:13;;;;;;;;;1.67;1.67;;;;;15.04;43.11;100507.03;5047483;28;46700;-69
2022/03/13 10:46:40;;;;;;;;;1.67;1.67;;;;;15.14;43.10;100534.38;5056230;28;45509;-70
2022/03/13 10:49:09;;;;;;;;;3.33;3.33;;;;;15.02;43.15;100523.25;5055817;28;45298;-70
2022/03/13 10:51:35;;;;;;;;;2.33;2.33;;;;;14.98;43.60;100524.59;5059507;28;45360;-70
2022/03/13 10:54:02;;;;;;;;;2.67;2.67;;;;;14.96;43.63;100521.28;5058515;28;45395;-69
2022/03/13 10:56:28;;;;;;;;;4.67;3.67;;;;;14.89;43.80;100521.16;5042300;28;45581;-71
2022/03/13 10:58:53;;;;;;;;;4.00;4.00;;;;;14.85;44.01;100503.81;5053484;28;46705;-69
2022/03/13 11:01:21;;;;;;;;;5.67;3.00;;;;;14.75;43.73;100511.22;5046907;28;45389;-70
2022/03/13 11:03:55;;;;;;;;;2.67;2.67;;;;;14.59;44.41;100477.34;5059448;28;45540;-73
2022/03/13 11:06:22;;;;;;;;;4.00;4.00;;;;;14.65;43.88;100499.91;5058674;28;45396;-69
2022/03/13 11:08:51;;;;;;;;;4.00;3.00;;;;;14.71;44.20;100515.25;5054423;28;47087;-71
2022/03/13 11:11:18;;;;;;;;;5.00;4.00;;;;;14.78;44.35;100534.09;5039072;28;45303;-70
2022/03/13 11:13:47;;;;;;;;;4.00;4.00;;;;;14.52;44.71;100499.66;5039185;28;45251;-68
2022/03/13 11:16:19;;;;;;;;;2.67;2.67;;;;;14.64;44.44;100516.97;5039282;28;45556;-69
2022/03/13 11:18:47;;;;;;;;;3.00;3.00;;;;;14.26;44.69;100470.50;5038543;28;45528;-68
2022/03/13 11:21:12;;;;;;;;;2.67;2.67;;;;;14.10;44.86;100447.34;5054497;28;46415;-68
2022/03/13 11:23:37;;;;;;;;;7.00;3.00;;;;;14.65;45.18;100521.31;5037697;28;45364;-70